Time;durP1;ratioP1;P1;durP2;ratioP2;P2;SDS_P1;SDS_P2;PMS_P1;PMS_P2;Temp;Humidity;BMP_temperature;BMP_pressure;BME280_temperature;BME280_humidity;BME280_pressure;Samples;Min_cycle;Max_cycle;Signal;HPM_P1;HPM_P2
2022/06/18 00:00:50;;;;;;;3.85;1.92;;;24.80;56.50;;;;;;5009976;28;20042;-78
2022/06/18 00:03:17;;;;;;;4.88;2.00;;;24.70;56.50;;;;;;5012409;28;20018;-79
2022/06/18 00:05:45;;;;;;;3.17;1.70;;;24.70;56.60;;;;;;4978370;28;20034;-78
2022/06/18 00:08:29;;;;;;;3.95;1.80;;;24.70;56.80;;;;;;5014672;28;20056;-77
2022/06/18 00:13:46;;;;;;;4.03;2.00;;;24.60;57.00;;;;;;5017090;28;20446;-79
2022/06/18 00:16:16;;;;;;;3.95;2.03;;;24.60;57.00;;;;;;5011133;28;20040;-77
2022/06/18 00:18:42;;;;;;;4.75;1.80;;;24.60;57.20;;;;;;5011607;28;20022;-77
2022/06/18 00:21:12;;;;;;;3.92;1.60;;;24.50;57.30;;;;;;5020093;28;20054;-78
2022/06/18 00:23:41;;;;;;;3.93;1.47;;;24.50;58.00;;;;;;5018154;28;20049;-78
2022/06/18 00:26:08;;;;;;;4.05;2.03;;;24.40;57.40;;;;;;5003681;28;20036;-78
2022/06/18 00:28:33;;;;;;;5.03;2.13;;;24.40;57.50;;;;;;5018954;28;20153;-78
2022/06/18 00:30:59;;;;;;;6.10;1.90;;;24.40;57.90;;;;;;5015248;28;20686;-77
2022/06/18 00:33:25;;;;;;;4.38;1.75;;;24.30;58.10;;;;;;5010300;28;20072;-77
2022/06/18 00:35:57;;;;;;;6.95;2.38;;;24.30;58.40;;;;;;5009651;28;20014;-78
2022/06/18 00:38:28;;;;;;;4.90;2.08;;;24.20;58.60;;;;;;4991889;28;20322;-77
2022/06/18 00:40:55;;;;;;;3.08;1.63;;;24.20;58.70;;;;;;5010925;28;20496;-77
2022/06/18 00:43:34;;;;;;;3.83;1.80;;;24.20;58.80;;;;;;5007042;28;20022;-78
2022/06/18 00:46:15;;;;;;;5.03;2.00;;;24.10;58.90;;;;;;5010477;28;20573;-77
2022/06/18 00:48:44;;;;;;;4.50;1.70;;;24.10;59.00;;;;;;5018320;28;20046;-77
2022/06/18 00:51:18;;;;;;;4.45;1.58;;;24.10;58.80;;;;;;5023785;28;20017;-79
2022/06/18 00:53:49;;;;;;;5.05;1.85;;;24.10;58.80;;;;;;5010104;28;20028;-78
2022/06/18 00:56:24;;;;;;;5.15;2.20;;;24.00;59.00;;;;;;5008425;28;20524;-78
2022/06/18 00:59:06;;;;;;;4.68;1.95;;;24.00;59.40;;;;;;5013984;28;20088;-79
2022/06/18 01:01:35;;;;;;;5.95;2.28;;;24.00;59.60;;;;;;5006738;28;20022;-78
2022/06/18 01:04:01;;;;;;;6.35;2.47;;;23.90;59.70;;;;;;4983086;28;20037;-78
2022/06/18 01:06:32;;;;;;;6.28;2.22;;;23.90;60.00;;;;;;5010934;28;20034;-77
2022/06/18 01:09:07;;;;;;;6.18;2.55;;;23.80;60.10;;;;;;5011203;28;20096;-77
2022/06/18 01:11:35;;;;;;;4.07;2.00;;;23.80;60.30;;;;;;5011518;28;20493;-78
2022/06/18 01:14:05;;;;;;;5.03;1.98;;;23.70;60.20;;;;;;4993346;28;20026;-77
2022/06/18 01:16:33;;;;;;;7.25;2.83;;;23.70;60.20;;;;;;4993142;28;20100;-78
2022/06/18 01:19:00;;;;;;;4.50;2.45;;;23.70;60.50;;;;;;4993009;28;20127;-78
2022/06/18 01:21:36;;;;;;;4.00;2.05;;;23.70;60.50;;;;;;5010947;28;20083;-76
2022/06/18 01:24:23;;;;;;;4.88;2.60;;;23.70;60.60;;;;;;5010832;28;20033;-78
2022/06/18 01:26:52;;;;;;;4.32;2.30;;;23.60;60.70;;;;;;5011836;28;20026;-78
2022/06/18 01:29:19;;;;;;;5.10;2.38;;;23.60;60.80;;;;;;4996072;28;20037;-79
2022/06/18 01:31:47;;;;;;;4.70;2.35;;;23.50;60.80;;;;;;5014011;28;20022;-79
2022/06/18 01:34:14;;;;;;;4.40;2.13;;;23.60;60.90;;;;;;5012469;28;20020;-77
2022/06/18 01:36:41;;;;;;;5.00;2.38;;;23.60;60.80;;;;;;4988839;28;20030;-78
2022/06/18 01:39:13;;;;;;;5.57;2.80;;;23.60;60.90;;;;;;4998037;28;20090;-78
2022/06/18 01:41:52;;;;;;;5.68;2.78;;;23.50;61.10;;;;;;5002098;28;20026;-80
2022/06/18 01:44:40;;;;;;;4.75;2.63;;;23.50;61.30;;;;;;5021609;28;20155;-78
2022/06/18 01:47:06;;;;;;;5.13;2.50;;;23.50;61.50;;;;;;5011515;28;20079;-77
2022/06/18 01:49:54;;;;;;;4.60;2.67;;;23.50;61.50;;;;;;5012144;28;20372;-78
2022/06/18 01:52:23;;;;;;;8.00;3.00;;;23.40;61.70;;;;;;4979072;28;20202;-78
2022/06/18 01:54:54;;;;;;;6.60;2.97;;;23.40;61.80;;;;;;5011819;28;20022;-77
2022/06/18 01:57:29;;;;;;;5.95;2.78;;;23.40;62.10;;;;;;5009705;28;20068;-77
2022/06/18 01:59:58;;;;;;;8.63;3.20;;;23.40;62.20;;;;;;5010997;28;20033;-78
2022/06/18 02:02:24;;;;;;;8.73;3.47;;;23.30;62.20;;;;;;4992631;28;20014;-78
2022/06/18 02:04:50;;;;;;;10.30;3.47;;;23.30;62.50;;;;;;5003940;28;20052;-77
2022/06/18 02:07:18;;;;;;;6.13;2.95;;;23.30;62.70;;;;;;4993370;28;20025;-78
2022/06/18 02:09:49;;;;;;;6.47;3.40;;;23.30;63.50;;;;;;5011061;28;20022;-78
2022/06/18 02:12:18;;;;;;;5.78;3.30;;;23.20;62.80;;;;;;5009972;28;20104;-78
2022/06/18 02:14:48;;;;;;;7.25;3.83;;;23.20;63.00;;;;;;5007076;28;20060;-78
2022/06/18 02:17:18;;;;;;;8.38;3.50;;;23.10;63.10;;;;;;5011926;28;20035;-78
2022/06/18 02:19:48;;;;;;;5.15;2.78;;;23.10;63.30;;;;;;5007816;28;20057;-78
2022/06/18 02:22:17;;;;;;;6.97;3.50;;;23.10;63.30;;;;;;5011379;28;20140;-77
2022/06/18 02:24:42;;;;;;;6.10;3.35;;;23.00;63.50;;;;;;5010966;28;20030;-78
2022/06/18 02:27:14;;;;;;;5.00;3.00;;;23.00;63.60;;;;;;5011913;28;20065;-77
2022/06/18 02:29:42;;;;;;;6.75;3.58;;;23.00;63.80;;;;;;5012243;28;20044;-79
2022/06/18 02:32:17;;;;;;;8.05;2.95;;;23.00;64.00;;;;;;5011576;28;20042;-78
2022/06/18 02:34:42;;;;;;;5.95;2.97;;;23.00;63.90;;;;;;5004553;28;20060;-78
2022/06/18 02:37:21;;;;;;;6.20;3.08;;;23.00;63.90;;;;;;4994812;28;20041;-78
2022/06/18 02:39:59;;;;;;;6.38;3.40;;;22.90;64.10;;;;;;5011862;28;20349;-78
2022/06/18 02:42:27;;;;;;;7.47;3.72;;;22.90;64.10;;;;;;5012040;28;20392;-78
2022/06/18 02:44:53;;;;;;;7.97;4.05;;;22.90;64.30;;;;;;5015707;28;20037;-77
2022/06/18 02:47:21;;;;;;;6.45;3.35;;;22.90;64.50;;;;;;5014393;28;20048;-79
2022/06/18 02:49:58;;;;;;;10.20;3.70;;;22.90;64.60;;;;;;5013868;28;20050;-78
2022/06/18 02:52:28;;;;;;;8.18;4.28;;;22.80;65.00;;;;;;5015180;28;20064;-78
2022/06/18 02:55:21;;;;;;;5.95;4.13;;;22.80;65.30;;;;;;5014024;28;20095;-78
2022/06/18 02:57:52;;;;;;;9.13;4.53;;;22.80;65.30;;;;;;5006579;28;20038;-78
2022/06/18 03:00:18;;;;;;;9.95;5.65;;;22.70;65.50;;;;;;5015159;28;20341;-79
2022/06/18 03:02:44;;;;;;;9.70;5.45;;;22.60;65.60;;;;;;5010537;28;20040;-78
2022/06/18 03:05:19;;;;;;;9.20;4.93;;;22.60;66.20;;;;;;5009221;28;20057;-77
2022/06/18 03:07:45;;;;;;;10.27;5.15;;;22.60;66.30;;;;;;4982277;28;20030;-78
2022/06/18 03:12:55;;;;;;;6.70;4.75;;;22.50;66.60;;;;;;5008837;28;20032;-78
2022/06/18 03:15:20;;;;;;;8.13;5.05;;;22.50;67.00;;;;;;5008741;28;20018;-78
2022/06/18 03:17:46;;;;;;;9.07;5.88;;;22.40;67.00;;;;;;5009010;28;20018;-76
2022/06/18 03:20:18;;;;;;;8.10;5.70;;;22.40;67.20;;;;;;5011318;28;20696;-77
2022/06/18 03:22:44;;;;;;;7.80;5.50;;;22.40;67.50;;;;;;5008987;28;20029;-76
2022/06/18 03:25:10;;;;;;;9.57;5.50;;;22.40;67.60;;;;;;5009088;28;20093;-77
2022/06/18 03:27:36;;;;;;;8.05;5.55;;;22.40;67.70;;;;;;5008712;28;20052;-77
2022/06/18 03:30:04;;;;;;;9.48;5.80;;;22.40;67.80;;;;;;5010400;28;20037;-78
2022/06/18 03:32:30;;;;;;;8.52;5.93;;;22.40;68.00;;;;;;5007547;28;20050;-77
2022/06/18 03:34:56;;;;;;;8.85;5.75;;;22.40;68.00;;;;;;5010897;28;20025;-79
2022/06/18 03:37:24;;;;;;;8.15;5.55;;;22.40;68.10;;;;;;5011354;28;20113;-78
2022/06/18 03:39:50;;;;;;;6.43;4.90;;;22.40;68.10;;;;;;5011322;28;20388;-78
2022/06/18 03:42:15;;;;;;;9.32;5.70;;;22.30;68.10;;;;;;5009428;28;20021;-78
2022/06/18 03:44:41;;;;;;;8.48;5.45;;;22.30;68.30;;;;;;5008997;28;20038;-78
2022/06/18 03:47:07;;;;;;;10.55;5.88;;;22.30;68.30;;;;;;5009392;28;20037;-79
2022/06/18 03:49:34;;;;;;;13.25;7.07;;;22.30;68.50;;;;;;5008773;28;20030;-78
2022/06/18 03:52:03;;;;;;;11.63;6.03;;;22.30;68.60;;;;;;5010793;28;20026;-78
2022/06/18 03:54:29;;;;;;;11.93;6.45;;;22.30;68.70;;;;;;5010055;28;20105;-77
2022/06/18 03:56:55;;;;;;;10.82;6.53;;;22.30;68.70;;;;;;5008667;28;20195;-77
2022/06/18 03:59:21;;;;;;;10.50;6.88;;;22.30;68.80;;;;;;5008650;28;20026;-77
2022/06/18 04:01:47;;;;;;;10.48;6.55;;;22.30;68.90;;;;;;5009333;28;20504;-76
2022/06/18 04:04:14;;;;;;;11.80;6.15;;;22.30;68.90;;;;;;4990819;28;20030;-77
2022/06/18 04:06:40;;;;;;;8.70;6.32;;;22.30;68.80;;;;;;4991352;28;20026;-77
2022/06/18 04:09:07;;;;;;;10.90;6.03;;;22.30;68.80;;;;;;5009372;28;20022;-76
2022/06/18 04:11:33;;;;;;;10.88;6.80;;;22.30;69.00;;;;;;5009994;28;20518;-76
2022/06/18 04:13:59;;;;;;;10.38;7.38;;;22.40;69.00;;;;;;5008963;28;20140;-77
2022/06/18 04:16:25;;;;;;;11.02;5.88;;;22.40;68.90;;;;;;5008725;28;20022;-77
2022/06/18 04:18:56;;;;;;;8.73;6.53;;;22.40;69.00;;;;;;5009350;28;20041;-78
2022/06/18 04:21:22;;;;;;;8.88;6.25;;;22.40;68.90;;;;;;5011745;28;20030;-78
2022/06/18 04:23:48;;;;;;;11.70;6.90;;;22.50;69.00;;;;;;5010575;28;20029;-78
2022/06/18 04:26:14;;;;;;;10.75;6.75;;;22.40;69.70;;;;;;5000640;28;20476;-77
2022/06/18 04:28:40;;;;;;;11.23;6.65;;;22.50;69.00;;;;;;5020080;28;20032;-77
2022/06/18 04:31:06;;;;;;;10.23;6.80;;;22.50;68.90;;;;;;5011269;28;20102;-77
2022/06/18 04:33:32;;;;;;;7.85;5.45;;;22.60;69.00;;;;;;5011245;28;20124;-77
2022/06/18 04:36:04;;;;;;;11.68;6.63;;;22.50;68.70;;;;;;5011919;28;20100;-78
2022/06/18 04:38:30;;;;;;;10.68;7.53;;;22.60;68.70;;;;;;5010438;28;20030;-76
2022/06/18 04:40:55;;;;;;;9.90;7.22;;;22.60;68.60;;;;;;4997133;28;20036;-78
2022/06/18 04:43:21;;;;;;;13.20;7.30;;;22.60;68.50;;;;;;5015975;28;20018;-78
2022/06/18 04:45:47;;;;;;;9.10;6.30;;;22.70;68.50;;;;;;5011192;28;20516;-77
2022/06/18 04:48:13;;;;;;;12.52;7.80;;;22.70;68.40;;;;;;5010663;28;20077;-77
2022/06/18 04:50:40;;;;;;;12.25;7.43;;;22.80;68.40;;;;;;4998371;28;20024;-77
2022/06/18 04:53:09;;;;;;;10.88;6.85;;;22.80;68.60;;;;;;4998782;28;20013;-78
2022/06/18 04:55:35;;;;;;;8.40;4.93;;;22.80;68.60;;;;;;5013678;28;20508;-77
2022/06/18 04:58:00;;;;;;;9.27;6.13;;;22.90;68.50;;;;;;5015181;28;20444;-78
2022/06/18 05:00:26;;;;;;;11.15;7.30;;;22.90;68.40;;;;;;5015694;28;20022;-77
2022/06/18 05:02:52;;;;;;;12.35;6.82;;;23.00;68.40;;;;;;5012102;28;20033;-77
2022/06/18 05:05:22;;;;;;;12.15;7.72;;;23.00;68.40;;;;;;5012997;28;20046;-77
2022/06/18 05:07:47;;;;;;;12.43;6.95;;;23.10;68.30;;;;;;5018294;28;20018;-77
2022/06/18 05:10:14;;;;;;;12.20;7.97;;;23.10;68.10;;;;;;4993026;28;20496;-77
2022/06/18 05:12:40;;;;;;;12.25;7.93;;;23.10;68.20;;;;;;5009424;28;20508;-77
2022/06/18 05:15:08;;;;;;;15.05;6.97;;;23.20;68.20;;;;;;5012255;28;20026;-78
2022/06/18 05:17:34;;;;;;;10.52;6.43;;;23.30;68.10;;;;;;5012744;28;20427;-77
2022/06/18 05:20:03;;;;;;;11.77;6.75;;;23.30;68.00;;;;;;5012170;28;20051;-78
2022/06/18 05:22:30;;;;;;;12.18;6.60;;;23.30;67.90;;;;;;5013329;28;20110;-78
2022/06/18 05:24:57;;;;;;;10.85;7.95;;;23.30;67.80;;;;;;5015954;28;20033;-78
2022/06/18 05:27:28;;;;;;;15.52;8.23;;;23.40;67.70;;;;;;5019886;28;20098;-79
2022/06/18 05:29:55;;;;;;;10.80;7.18;;;23.40;67.50;;;;;;4995972;28;20058;-78
2022/06/18 05:32:21;;;;;;;12.00;7.25;;;23.40;67.40;;;;;;5019564;28;20046;-78
2022/06/18 05:34:47;;;;;;;10.52;7.05;;;23.50;67.30;;;;;;5014895;28;20068;-77
2022/06/18 05:37:15;;;;;;;10.55;7.53;;;23.50;67.20;;;;;;5012025;28;20079;-76
2022/06/18 05:39:41;;;;;;;10.13;5.43;;;23.50;67.20;;;;;;5009316;28;20022;-76
2022/06/18 05:42:08;;;;;;;14.18;9.38;;;23.50;63.40;;;;;;5010388;28;20052;-76
2022/06/18 05:44:35;;;;;;;13.50;9.48;;;23.60;66.50;;;;;;4989672;28;20069;-77
2022/06/18 05:47:10;;;;;;;12.90;9.32;;;23.70;67.40;;;;;;5007026;28;20026;-76
2022/06/18 05:49:36;;;;;;;13.52;8.90;;;23.70;67.50;;;;;;5006583;28;20064;-77
2022/06/18 05:52:02;;;;;;;15.23;11.13;;;23.70;67.40;;;;;;5009069;28;20022;-77
2022/06/18 05:54:27;;;;;;;15.45;10.13;;;23.70;67.40;;;;;;5009953;28;20034;-75
2022/06/18 05:56:54;;;;;;;14.90;9.65;;;23.80;67.20;;;;;;5009957;28;20033;-77
2022/06/18 05:59:19;;;;;;;15.15;10.20;;;23.80;67.20;;;;;;5009055;28;20030;-77
2022/06/18 06:01:45;;;;;;;16.85;11.70;;;23.80;67.10;;;;;;5008778;28;20026;-76
2022/06/18 06:04:11;;;;;;;14.93;10.43;;;23.80;67.40;;;;;;5009800;28;20030;-76
2022/06/18 06:06:37;;;;;;;16.38;10.38;;;23.80;67.10;;;;;;5009099;28;20018;-77
2022/06/18 06:09:04;;;;;;;14.43;9.43;;;23.80;67.10;;;;;;4992180;28;20026;-79
2022/06/18 06:11:29;;;;;;;9.90;7.13;;;23.80;66.90;;;;;;5010379;28;20061;-77
2022/06/18 06:13:57;;;;;;;12.57;7.72;;;23.80;66.00;;;;;;5008939;28;20069;-77
2022/06/18 06:16:23;;;;;;;10.25;6.55;;;23.90;65.90;;;;;;5009795;28;20080;-78
2022/06/18 06:18:49;;;;;;;13.02;8.27;;;23.90;64.50;;;;;;5009620;28;20014;-77
2022/06/18 06:21:15;;;;;;;7.40;4.78;;;24.00;65.90;;;;;;5009755;28;20365;-77
2022/06/18 06:23:40;;;;;;;9.32;5.70;;;24.10;63.20;;;;;;5010104;28;20126;-75
2022/06/18 06:26:34;;;;;;;10.77;6.35;;;24.20;64.50;;;;;;5009929;28;20482;-76
2022/06/18 06:29:00;;;;;;;15.68;7.70;;;24.20;63.60;;;;;;4991973;28;20033;-77
2022/06/18 06:31:29;;;;;;;15.95;9.02;;;24.30;64.90;;;;;;5009705;28;20068;-78
2022/06/18 06:33:54;;;;;;;11.43;6.20;;;24.30;64.70;;;;;;4988672;28;20080;-77
2022/06/18 06:36:20;;;;;;;13.80;8.70;;;24.30;63.90;;;;;;5008977;28;20053;-76
2022/06/18 06:38:46;;;;;;;13.93;9.18;;;24.40;64.20;;;;;;5008357;28;20037;-76
2022/06/18 06:41:22;;;;;;;18.30;10.02;;;24.40;64.40;;;;;;5009157;28;20025;-75
2022/06/18 06:43:48;;;;;;;16.05;9.55;;;24.50;64.40;;;;;;5005296;28;20037;-75
2022/06/18 06:46:18;;;;;;;14.70;8.35;;;24.50;65.00;;;;;;5007380;28;20030;-76
2022/06/18 06:48:46;;;;;;;14.10;7.85;;;24.70;64.60;;;;;;5006423;28;20526;-75
2022/06/18 06:51:20;;;;;;;16.27;8.95;;;24.70;64.40;;;;;;5008110;28;20037;-75
2022/06/18 06:53:47;;;;;;;18.13;11.38;;;24.80;64.60;;;;;;5008376;28;20022;-75
2022/06/18 06:58:59;;;;;;;13.18;9.25;;;25.00;63.60;;;;;;5010679;28;20088;-74
2022/06/18 07:01:25;;;;;;;13.90;6.85;;;25.20;62.80;;;;;;5005805;28;20034;-75
2022/06/18 07:03:51;;;;;;;16.02;8.50;;;25.20;61.70;;;;;;5009320;28;20029;-74
2022/06/18 07:06:18;;;;;;;13.75;6.90;;;25.20;62.50;;;;;;5009243;28;20033;-74
2022/06/18 07:08:44;;;;;;;21.65;9.90;;;25.20;62.50;;;;;;5008020;28;20022;-75
2022/06/18 07:11:10;;;;;;;17.85;8.45;;;25.30;63.30;;;;;;5008833;28;20472;-75
2022/06/18 07:13:37;;;;;;;17.15;8.73;;;25.30;63.00;;;;;;5007245;28;20057;-73
2022/06/18 07:16:04;;;;;;;16.25;8.55;;;25.40;63.10;;;;;;5008345;28;20452;-74
2022/06/18 07:18:33;;;;;;;22.77;9.27;;;25.50;63.10;;;;;;5006420;28;20036;-73
2022/06/18 07:21:01;;;;;;;13.77;7.25;;;25.60;62.80;;;;;;4990440;28;20056;-72
2022/06/18 07:23:27;;;;;;;19.23;9.88;;;25.70;62.70;;;;;;5005777;28;20068;-73
2022/06/18 07:25:53;;;;;;;18.70;9.05;;;25.80;62.60;;;;;;4990966;28;20069;-73
2022/06/18 07:28:18;;;;;;;15.88;7.78;;;25.80;62.80;;;;;;4986994;28;20741;-72
2022/06/18 07:30:46;;;;;;;12.38;5.68;;;25.80;61.90;;;;;;5007840;28;20034;-73
2022/06/18 07:33:16;;;;;;;14.70;6.97;;;25.80;62.20;;;;;;5005353;28;20132;-73
2022/06/18 07:35:42;;;;;;;;;;;26.00;62.70;;;;;;5008401;28;20033;-72
2022/06/18 07:38:07;;;;;;;11.85;6.07;;;26.10;61.80;;;;;;4989543;28;19909;-73
2022/06/18 07:40:44;;;;;;;14.07;7.30;;;26.20;62.40;;;;;;4990761;28;20068;-73
2022/06/18 07:43:14;;;;;;;16.15;7.90;;;26.40;61.90;;;;;;5004758;28;20113;-73
2022/06/18 07:45:40;;;;;;;14.25;7.28;;;26.50;61.30;;;;;;5007897;28;20041;-73
2022/06/18 07:48:06;;;;;;;14.38;6.47;;;26.60;60.90;;;;;;5008485;28;20101;-74
2022/06/18 07:50:31;;;;;;;16.25;7.93;;;26.70;60.60;;;;;;5007772;28;20026;-73
2022/06/18 07:52:57;;;;;;;11.57;6.53;;;26.80;60.20;;;;;;5008196;28;20377;-74
2022/06/18 07:55:26;;;;;;;13.45;7.55;;;26.80;60.60;;;;;;5010056;28;20084;-73
2022/06/18 07:57:51;;;;;;;15.15;7.55;;;26.90;60.70;;;;;;5009869;28;20034;-73
2022/06/18 08:00:21;;;;;;;18.25;7.82;;;27.00;60.50;;;;;;4990337;28;20029;-73
2022/06/18 08:02:48;;;;;;;16.55;7.00;;;27.00;60.60;;;;;;5008825;28;20080;-73
2022/06/18 08:05:22;;;;;;;17.08;7.57;;;27.00;60.00;;;;;;5008864;28;20111;-73
2022/06/18 08:07:48;;;;;;;17.92;7.15;;;27.10;59.90;;;;;;5024718;28;20538;-72
2022/06/18 08:10:13;;;;;;;8.88;3.80;;;27.20;59.90;;;;;;5007939;28;20033;-72
2022/06/18 08:12:39;;;;;;;15.00;7.57;;;27.40;58.60;;;;;;4988893;28;20453;-74
2022/06/18 08:15:06;;;;;;;11.18;5.78;;;27.50;58.90;;;;;;5004704;28;20076;-74
2022/06/18 08:17:32;;;;;;;16.73;5.43;;;27.60;58.80;;;;;;4994443;28;20124;-75
2022/06/18 08:19:57;;;;;;;13.02;5.05;;;27.80;58.70;;;;;;5010411;28;20105;-75
2022/06/18 08:22:24;;;;;;;12.73;7.18;;;27.90;58.20;;;;;;4993956;28;20037;-74
2022/06/18 08:24:51;;;;;;;13.73;6.85;;;28.10;57.70;;;;;;5012145;28;20038;-74
2022/06/18 08:27:18;;;;;;;13.32;6.22;;;28.20;57.90;;;;;;5011451;28;20022;-74
2022/06/18 08:29:43;;;;;;;14.02;4.53;;;28.40;57.70;;;;;;5012322;28;20022;-74
2022/06/18 08:32:09;;;;;;;12.88;5.18;;;28.50;57.30;;;;;;5010732;28;20038;-74
2022/06/18 08:34:35;;;;;;;8.13;3.40;;;28.70;56.80;;;;;;5009867;28;20427;-74
2022/06/18 08:37:03;;;;;;;16.85;5.50;;;28.80;56.20;;;;;;5010849;28;20125;-74
2022/06/18 08:39:30;;;;;;;10.10;4.43;;;29.00;56.00;;;;;;5010795;28;20112;-74
2022/06/18 08:42:05;;;;;;;6.68;3.58;;;29.10;55.50;;;;;;5010475;28;20468;-73
2022/06/18 08:44:55;;;;;;;8.43;4.45;;;29.20;54.90;;;;;;5011319;28;20053;-74
2022/06/18 08:47:23;;;;;;;13.32;5.65;;;29.30;54.80;;;;;;5009623;28;20045;-74
2022/06/18 08:50:12;;;;;;;12.65;5.43;;;29.40;54.80;;;;;;5010714;28;20432;-75
2022/06/18 08:52:44;;;;;;;9.05;4.38;;;29.50;54.90;;;;;;5008239;28;20392;-74
2022/06/18 08:55:35;;;;;;;12.57;4.63;;;29.60;54.30;;;;;;5007698;28;20041;-75
2022/06/18 08:58:26;;;;;;;11.10;4.18;;;29.70;54.40;;;;;;5009183;28;20433;-75
2022/06/18 09:01:15;;;;;;;10.43;4.90;;;29.80;53.50;;;;;;5007007;28;20049;-74
2022/06/18 09:03:58;;;;;;;10.40;3.67;;;29.90;54.20;;;;;;5005223;28;20026;-75
2022/06/18 09:06:51;;;;;;;13.88;5.70;;;30.10;53.50;;;;;;5011004;28;20113;-75
2022/06/18 09:09:38;;;;;;;11.27;4.72;;;30.20;52.80;;;;;;5010988;28;20049;-73
2022/06/18 09:12:11;;;;;;;12.77;4.65;;;30.30;52.40;;;;;;5011544;28;20025;-75
2022/06/18 09:15:05;;;;;;;15.77;5.85;;;30.40;51.90;;;;;;5010602;28;20029;-77
2022/06/18 09:17:49;;;;;;;10.23;5.32;;;30.50;51.90;;;;;;4979778;28;20125;-76
2022/06/18 09:20:25;;;;;;;11.20;5.15;;;30.60;51.00;;;;;;5009461;28;20049;-76
2022/06/18 09:22:57;;;;;;;10.05;4.60;;;30.60;50.70;;;;;;5010678;28;20084;-75
2022/06/18 09:25:28;;;;;;;17.35;6.70;;;30.60;51.70;;;;;;4993458;28;20037;-76
2022/06/18 09:28:01;;;;;;;14.88;5.85;;;30.70;50.90;;;;;;5010782;28;20026;-75
2022/06/18 09:30:36;;;;;;;9.65;4.38;;;30.80;51.20;;;;;;5006222;28;20038;-75
2022/06/18 09:33:16;;;;;;;13.27;5.50;;;30.90;51.30;;;;;;5010554;28;20084;-75
2022/06/18 09:35:46;;;;;;;;;;;30.90;51.20;;;;;;4991694;28;20080;-75
2022/06/18 09:38:29;;;;;;;10.73;4.60;;;31.00;50.90;;;;;;5006779;28;19960;-72
2022/06/18 09:40:58;;;;;;;9.15;4.00;;;31.10;50.50;;;;;;4991666;28;20050;-73
2022/06/18 09:43:52;;;;;;;11.50;4.75;;;31.10;50.50;;;;;;5006412;28;20100;-75
2022/06/18 09:46:32;;;;;;;12.85;5.88;;;31.20;50.90;;;;;;5011298;28;20066;-77
2022/06/18 09:48:57;;;;;;;11.07;4.40;;;31.10;51.10;;;;;;5009916;28;20113;-75
2022/06/18 09:51:36;;;;;;;15.40;6.00;;;31.10;51.30;;;;;;5009576;28;20105;-75
2022/06/18 09:54:07;;;;;;;14.32;4.80;;;31.20;50.30;;;;;;5008284;28;20384;-75
2022/06/18 09:56:37;;;;;;;10.10;4.13;;;31.40;51.50;;;;;;4990632;28;20030;-75
2022/06/18 09:59:17;;;;;;;13.75;4.88;;;31.60;50.90;;;;;;5007870;28;20084;-76
2022/06/18 10:01:46;;;;;;;13.25;5.22;;;31.60;51.00;;;;;;5008392;28;20026;-77
2022/06/18 10:07:05;;;;;;;9.75;4.20;;;31.90;50.70;;;;;;5009893;28;20116;-76
2022/06/18 10:09:35;;;;;;;13.40;5.57;;;32.00;50.00;;;;;;5010150;28;20025;-75
2022/06/18 10:12:16;;;;;;;10.70;4.05;;;32.10;48.30;;;;;;5010163;28;20018;-75
2022/06/18 10:14:43;;;;;;;7.95;3.10;;;32.00;49.30;;;;;;5009566;28;20049;-76
2022/06/18 10:17:39;;;;;;;12.18;3.45;;;32.00;51.10;;;;;;4992746;28;20064;-76
2022/06/18 10:20:10;;;;;;;12.90;5.95;;;31.90;51.40;;;;;;4992006;28;20036;-76
2022/06/18 10:22:51;;;;;;;15.85;6.03;;;32.00;49.60;;;;;;5010116;28;20030;-76
2022/06/18 10:25:29;;;;;;;10.07;4.72;;;32.20;50.20;;;;;;5010584;28;20437;-77
2022/06/18 10:28:19;;;;;;;13.13;5.65;;;32.40;49.00;;;;;;5015633;28;20049;-76
2022/06/18 10:31:18;;;;;;;13.30;5.38;;;32.50;48.40;;;;;;4990763;28;20025;-76
2022/06/18 10:33:58;;;;;;;10.65;4.50;;;32.40;48.70;;;;;;4994804;28;20077;-76
2022/06/18 10:36:47;;;;;;;13.85;5.72;;;32.50;49.10;;;;;;4999153;28;20026;-76
2022/06/18 10:39:24;;;;;;;15.97;6.20;;;32.70;47.60;;;;;;5009710;28;20021;-77
2022/06/18 10:42:14;;;;;;;12.77;4.63;;;32.70;47.50;;;;;;5009713;28;20037;-76
2022/06/18 10:44:59;;;;;;;;;;;32.80;47.40;;;;;;4982145;28;20052;-76
2022/06/18 10:47:35;;;;;;;13.63;5.28;;;32.80;46.80;;;;;;5009638;28;19951;-75
2022/06/18 10:50:14;;;;;;;9.23;4.47;;;32.60;48.00;;;;;;5009131;28;20064;-76
2022/06/18 10:52:40;;;;;;;8.70;3.80;;;32.50;48.70;;;;;;5005542;28;20030;-76
2022/06/18 10:55:10;;;;;;;10.32;4.68;;;32.70;48.60;;;;;;5008194;28;20679;-76
2022/06/18 10:57:36;;;;;;;11.40;4.95;;;32.90;47.70;;;;;;4990804;28;20216;-76
2022/06/18 11:00:11;;;;;;;11.90;5.53;;;33.00;47.30;;;;;;4990758;28;20553;-74
2022/06/18 11:02:39;;;;;;;15.23;5.57;;;33.00;47.80;;;;;;4991045;28;20026;-76
2022/06/18 11:05:28;;;;;;;13.32;5.68;;;32.90;47.20;;;;;;5008707;28;20045;-76
2022/06/18 11:07:55;;;;;;;12.52;4.50;;;32.70;47.70;;;;;;5003153;28;20034;-75
2022/06/18 11:10:37;;;;;;;13.32;4.68;;;32.70;49.50;;;;;;5008860;28;20028;-76
2022/06/18 11:13:05;;;;;;;7.78;3.95;;;32.70;47.80;;;;;;5005721;28;20030;-76
2022/06/18 11:15:37;;;;;;;11.65;4.93;;;32.90;49.40;;;;;;5009310;28;20037;-76
2022/06/18 11:18:21;;;;;;;13.25;6.32;;;33.20;46.60;;;;;;5007873;28;20421;-75
2022/06/18 11:21:05;;;;;;;15.43;5.75;;;33.30;45.50;;;;;;5006030;28;20044;-76
2022/06/18 11:23:36;;;;;;;15.68;6.18;;;33.30;46.60;;;;;;5009158;28;20014;-75
2022/06/18 11:26:05;;;;;;;15.20;6.03;;;33.30;45.40;;;;;;4985232;28;20451;-75
2022/06/18 11:28:39;;;;;;;12.33;4.40;;;33.30;45.80;;;;;;5009262;28;20453;-74
2022/06/18 11:31:08;;;;;;;8.75;3.30;;;33.40;47.80;;;;;;5008421;28;20018;-75
2022/06/18 11:33:37;;;;;;;10.35;4.85;;;33.30;50.30;;;;;;5008635;28;20061;-75
2022/06/18 11:36:09;;;;;;;11.98;4.90;;;33.20;46.90;;;;;;4989940;28;20022;-75
2022/06/18 11:38:36;;;;;;;14.38;5.22;;;33.20;43.80;;;;;;4990680;28;20029;-75
2022/06/18 11:41:26;;;;;;;10.65;4.35;;;33.20;42.80;;;;;;5006942;28;20033;-77
2022/06/18 11:44:15;;;;;;;13.93;4.60;;;33.40;44.60;;;;;;5000783;28;20057;-76
2022/06/18 11:46:55;;;;;;;12.53;4.97;;;33.60;45.20;;;;;;5017746;28;20495;-76
2022/06/18 11:49:30;;;;;;;13.90;4.13;;;33.80;44.20;;;;;;5018229;28;20026;-77
2022/06/18 11:52:01;;;;;;;12.45;4.05;;;33.90;44.20;;;;;;5009570;28;20105;-77
2022/06/18 11:54:47;;;;;;;12.27;4.38;;;34.10;43.80;;;;;;5009452;28;20476;-77
2022/06/18 11:57:30;;;;;;;16.38;4.05;;;34.30;43.20;;;;;;5004381;28;20018;-76
2022/06/18 12:00:04;;;;;;;13.52;4.18;;;34.40;41.50;;;;;;5004335;28;20113;-77
2022/06/18 12:02:45;;;;;;;12.05;4.32;;;34.60;41.70;;;;;;5004346;28;20038;-76
2022/06/18 12:05:33;;;;;;;9.18;3.30;;;34.60;40.50;;;;;;4988330;28;20037;-75
2022/06/18 12:08:01;;;;;;;10.70;3.38;;;34.60;44.40;;;;;;5005269;28;20813;-74
2022/06/18 12:10:44;;;;;;;10.10;4.07;;;34.80;43.60;;;;;;5003044;28;20049;-75
2022/06/18 12:13:18;;;;;;;9.07;3.30;;;34.80;45.60;;;;;;5005276;28;20030;-75
2022/06/18 12:15:57;;;;;;;19.08;5.32;;;34.80;42.20;;;;;;5005423;28;20032;-75
2022/06/18 12:18:51;;;;;;;12.57;4.25;;;34.80;42.20;;;;;;5004431;28;20045;-76
2022/06/18 12:21:23;;;;;;;14.30;5.97;;;34.60;43.10;;;;;;4989045;28;20022;-76
2022/06/18 12:24:04;;;;;;;13.13;4.53;;;34.50;41.20;;;;;;4986851;28;20052;-75
2022/06/18 12:26:37;;;;;;;16.25;4.57;;;34.50;42.80;;;;;;5002431;28;20089;-76
2022/06/18 12:29:21;;;;;;;10.25;3.67;;;34.60;43.20;;;;;;4984832;28;20053;-76
2022/06/18 12:31:50;;;;;;;12.43;4.53;;;34.60;44.20;;;;;;5003674;28;20018;-77
2022/06/18 12:34:38;;;;;;;18.08;5.53;;;34.70;46.10;;;;;;5003562;28;20034;-76
2022/06/18 12:37:16;;;;;;;10.88;4.35;;;34.60;42.20;;;;;;5003882;28;20076;-75
2022/06/18 12:40:02;;;;;;;17.58;4.97;;;34.30;42.40;;;;;;5002526;28;20511;-75
2022/06/18 12:42:37;;;;;;;8.55;4.25;;;34.30;44.80;;;;;;5002838;28;20041;-75
2022/06/18 12:45:24;;;;;;;18.48;5.55;;;34.30;45.30;;;;;;5003413;28;20030;-76
2022/06/18 12:48:08;;;;;;;18.00;5.15;;;34.30;44.30;;;;;;4986152;28;20048;-75
2022/06/18 12:50:47;;;;;;;13.35;4.72;;;34.20;43.40;;;;;;5003666;28;20590;-74
2022/06/18 12:53:36;;;;;;;11.93;3.47;;;34.20;44.90;;;;;;4988312;28;20049;-76
2022/06/18 12:56:31;;;;;;;11.30;4.30;;;34.20;46.40;;;;;;5004660;28;20507;-76
2022/06/18 12:59:24;;;;;;;8.70;3.22;;;34.30;45.70;;;;;;5005756;28;20101;-75
2022/06/18 13:02:20;;;;;;;10.48;4.60;;;34.60;50.20;;;;;;5008238;28;20026;-76
2022/06/18 13:04:49;;;;;;;14.35;5.53;;;34.60;44.00;;;;;;5007302;28;20120;-75
2022/06/18 13:07:26;;;;;;;10.60;4.07;;;34.70;43.60;;;;;;4989444;28;20125;-75
2022/06/18 13:10:05;;;;;;;13.00;4.47;;;34.80;44.10;;;;;;5006384;28;20147;-75
2022/06/18 13:12:40;;;;;;;9.93;4.20;;;34.90;43.70;;;;;;4988623;28;20167;-76
2022/06/18 13:15:13;;;;;;;10.23;4.10;;;35.00;45.70;;;;;;5005580;28;20022;-76